Time;durP1;ratioP1;P1;durP2;ratioP2;P2;SDS_P1;SDS_P2;PMS_P1;PMS_P2;Temp;Humidity;BMP_temperature;BMP_pressure;BME280_temperature;BME280_humidity;BME280_pressure;Samples;Min_cycle;Max_cycle;Signal;HPM_P1;HPM_P2
2022/08/12 00:44:48;;;;;;;8.02;4.05;;;26.90;40.10;;;;;;7380240;19;20101;-89
2022/08/12 00:47:21;;;;;;;5.15;3.50;;;26.90;40.20;;;;;;7376881;19;20511;-89
2022/08/12 00:49:51;;;;;;;8.77;4.20;;;26.90;40.00;;;;;;7397265;19;20027;-89
2022/08/12 00:52:21;;;;;;;16.30;4.25;;;26.90;40.00;;;;;;7378291;19;20015;-89
2022/08/12 00:54:51;;;;;;;7.35;3.80;;;26.90;40.10;;;;;;7379752;19;20394;-89
2022/08/12 00:57:22;;;;;;;5.90;3.70;;;27.00;40.00;;;;;;7386527;19;20011;-89
2022/08/12 00:59:53;;;;;;;4.53;3.90;;;27.00;40.00;;;;;;7381442;19;20014;-89
2022/08/12 01:02:28;;;;;;;;;;;27.00;39.70;;;;;;7382608;19;20021;-90
2022/08/12 01:13:04;;;;;;;;;;;27.10;40.30;;;;;;7399917;19;20042;-89
2022/08/12 01:15:33;;;;;;;7.25;3.92;;;27.10;40.50;;;;;;7403300;19;19910;-89
2022/08/12 01:18:07;;;;;;;6.88;4.22;;;27.00;40.50;;;;;;7405608;19;20007;-90
2022/08/12 01:20:42;;;;;;;5.55;4.18;;;27.00;40.60;;;;;;7404909;19;20142;-90
2022/08/12 01:23:33;;;;;;;9.32;4.05;;;27.00;40.60;;;;;;7399478;19;20091;-89
2022/08/12 01:26:07;;;;;;;6.55;3.97;;;26.90;40.70;;;;;;7397282;19;20007;-86
2022/08/12 01:28:37;;;;;;;8.43;4.47;;;26.90;40.60;;;;;;7421552;19;20022;-89
2022/08/12 01:31:08;;;;;;;8.95;4.35;;;26.90;40.40;;;;;;7393200;19;20025;-87
2022/08/12 01:33:45;;;;;;;6.30;4.25;;;26.90;40.40;;;;;;7400735;19;20011;-90
2022/08/12 01:36:15;;;;;;;7.30;4.07;;;26.90;40.40;;;;;;7403454;19;20027;-92
2022/08/12 01:38:49;;;;;;;7.50;4.17;;;26.90;41.20;;;;;;7401705;19;20023;-91
2022/08/12 01:41:26;;;;;;;7.10;3.92;;;26.90;40.40;;;;;;7402982;19;20243;-89
2022/08/12 01:43:56;;;;;;;11.65;4.57;;;26.90;40.10;;;;;;7400986;19;20035;-88
2022/08/12 01:46:36;;;;;;;10.85;4.13;;;26.90;40.20;;;;;;7417211;19;20007;-90
2022/08/12 01:49:16;;;;;;;9.77;4.03;;;26.90;40.30;;;;;;7400314;19;20046;-90
2022/08/12 01:51:49;;;;;;;8.38;4.28;;;26.90;40.30;;;;;;7394203;19;20011;-90
2022/08/12 01:54:20;;;;;;;7.68;4.32;;;27.00;40.60;;;;;;7393879;19;20018;-90
2022/08/12 01:56:57;;;;;;;5.55;4.20;;;26.90;40.60;;;;;;7395325;19;20010;-90
2022/08/12 01:59:46;;;;;;;7.95;4.40;;;26.80;40.60;;;;;;7395847;19;20022;-90
2022/08/12 02:02:18;;;;;;;7.57;4.55;;;26.80;40.80;;;;;;7387261;19;20044;-90
2022/08/12 02:14:04;;;;;;;7.03;4.22;;;26.60;40.70;;;;;;7390833;19;20018;-90
2022/08/12 02:16:47;;;;;;;5.63;3.97;;;26.60;40.30;;;;;;7394169;19;20059;-91
2022/08/12 02:19:30;;;;;;;7.20;4.85;;;26.60;40.50;;;;;;7395092;19;20007;-91
2022/08/12 02:22:13;;;;;;;8.27;4.43;;;26.60;40.20;;;;;;7397666;19;20452;-90
2022/08/12 02:24:45;;;;;;;6.85;4.50;;;26.60;40.10;;;;;;7397163;19;20030;-91
2022/08/12 02:27:16;;;;;;;12.20;5.00;;;26.60;40.60;;;;;;7395132;19;20014;-91
2022/08/12 02:29:48;;;;;;;7.70;4.75;;;26.60;40.40;;;;;;7395643;19;20010;-91
2022/08/12 02:32:17;;;;;;;10.88;5.00;;;26.60;40.50;;;;;;7391397;19;20023;-91
2022/08/12 02:34:47;;;;;;;9.90;4.78;;;26.50;39.30;;;;;;7412904;19;19999;-92
2022/08/12 02:37:20;;;;;;;6.18;4.28;;;26.50;40.10;;;;;;7398740;19;20010;-91
2022/08/12 02:39:51;;;;;;;10.45;4.80;;;26.50;40.60;;;;;;7386016;19;20018;-91
2022/08/12 02:42:24;;;;;;;7.05;4.80;;;26.50;41.00;;;;;;7403575;19;20010;-91
2022/08/12 02:44:58;;;;;;;9.27;4.78;;;26.40;41.10;;;;;;7398693;19;20049;-91
2022/08/12 02:47:29;;;;;;;8.00;4.38;;;26.40;41.30;;;;;;7390835;19;20022;-92
2022/08/12 02:50:00;;;;;;;6.70;4.60;;;26.40;41.20;;;;;;7393279;19;20061;-91
2022/08/12 02:52:31;;;;;;;9.13;4.45;;;26.40;41.30;;;;;;7420141;19;20010;-91
2022/08/12 02:55:14;;;;;;;8.50;4.80;;;26.30;41.30;;;;;;7406262;19;20007;-90
2022/08/12 02:57:43;;;;;;;10.85;4.80;;;26.40;41.30;;;;;;7397434;19;20003;-90
2022/08/12 03:00:17;;;;;;;8.52;5.20;;;26.30;41.30;;;;;;7392508;19;20010;-90
2022/08/12 03:02:49;;;;;;;8.75;4.90;;;26.30;41.30;;;;;;7400085;19;20031;-91
2022/08/12 03:05:19;;;;;;;7.38;4.82;;;26.30;41.50;;;;;;7405778;19;20082;-90
2022/08/12 03:07:54;;;;;;;7.00;4.15;;;26.30;41.60;;;;;;7423607;19;20022;-90
2022/08/12 03:10:25;;;;;;;8.18;4.60;;;26.30;41.70;;;;;;7398680;19;20121;-91
2022/08/12 03:12:59;;;;;;;8.45;4.50;;;26.20;41.70;;;;;;7402122;19;20011;-90
2022/08/12 03:15:30;;;;;;;7.47;4.25;;;26.20;42.00;;;;;;7400723;19;20011;-90
2022/08/12 03:18:04;;;;;;;6.50;4.35;;;26.10;42.10;;;;;;7398532;19;20031;-90
2022/08/12 03:20:39;;;;;;;6.72;4.75;;;26.10;42.30;;;;;;7399304;19;20034;-91
2022/08/12 03:23:11;;;;;;;6.30;4.32;;;26.10;42.40;;;;;;7400310;19;20007;-91
2022/08/12 03:25:42;;;;;;;11.13;4.72;;;26.00;42.40;;;;;;7418943;19;20014;-91
2022/08/12 03:28:48;;;;;;;7.82;4.82;;;26.00;42.50;;;;;;7403127;19;20010;-90
2022/08/12 03:31:06;;;;;;;7.13;4.50;;;26.00;43.10;;;;;;7404769;19;20019;-90
2022/08/12 03:33:37;;;;;;;8.70;4.88;;;25.90;42.70;;;;;;7399439;19;20042;-90
2022/08/12 03:36:08;;;;;;;7.22;4.55;;;25.80;42.90;;;;;;7392431;19;20030;-85
2022/08/12 03:38:41;;;;;;;12.35;5.22;;;25.80;43.00;;;;;;7396621;19;20039;-89
2022/08/12 04:00:23;;;;;;;8.70;4.57;;;25.60;42.60;;;;;;7404039;19;20035;-91
2022/08/12 04:02:59;;;;;;;8.75;4.70;;;25.50;42.00;;;;;;7404303;19;20015;-91
2022/08/12 04:05:28;;;;;;;8.35;4.97;;;25.50;42.60;;;;;;7404474;19;20054;-91
2022/08/12 04:07:58;;;;;;;11.32;4.75;;;25.40;42.10;;;;;;7400225;19;20018;-91
2022/08/12 04:13:14;;;;;;;10.07;5.45;;;25.40;41.90;;;;;;7415780;19;20023;-90
2022/08/12 04:13:20;;;;;;;8.00;4.82;;;25.40;42.00;;;;;;7396924;19;20018;-90
2022/08/12 04:15:49;;;;;;;9.38;5.07;;;25.40;41.80;;;;;;7393935;19;20747;-90
2022/08/12 04:18:21;;;;;;;7.43;4.63;;;25.40;41.50;;;;;;7390226;19;20006;-90
2022/08/12 04:20:51;;;;;;;9.55;5.22;;;25.40;41.50;;;;;;7400388;19;20013;-91
2022/08/12 04:23:23;;;;;;;11.23;5.70;;;25.40;41.30;;;;;;7400448;19;20062;-91
2022/08/12 04:25:52;;;;;;;13.25;6.32;;;25.40;41.20;;;;;;7422074;19;20002;-91
2022/08/12 04:28:27;;;;;;;11.43;5.97;;;25.40;41.10;;;;;;7403456;19;20014;-91
2022/08/12 04:30:57;;;;;;;12.77;6.25;;;25.40;41.00;;;;;;7401197;19;20007;-91
2022/08/12 04:33:30;;;;;;;10.00;6.05;;;25.30;40.70;;;;;;7405820;19;20016;-91
2022/08/12 04:35:59;;;;;;;15.18;6.68;;;25.30;40.80;;;;;;7403126;19;20018;-90
2022/08/12 04:38:30;;;;;;;16.92;6.20;;;25.20;40.80;;;;;;7404482;19;20014;-89
2022/08/12 04:40:59;;;;;;;18.42;7.30;;;25.20;41.10;;;;;;7405892;19;20014;-90
2022/08/12 04:43:28;;;;;;;14.68;7.03;;;25.20;41.10;;;;;;7426842;19;20021;-91
2022/08/12 04:45:57;;;;;;;17.27;7.05;;;25.20;41.20;;;;;;7402337;19;20010;-91
2022/08/12 04:48:28;;;;;;;15.93;7.03;;;25.10;41.00;;;;;;7401834;19;20009;-91
2022/08/12 04:50:57;;;;;;;13.98;6.97;;;25.10;41.20;;;;;;7401124;19;20014;-91
2022/08/12 04:53:27;;;;;;;14.35;6.70;;;25.20;41.10;;;;;;7401962;19;20110;-91
2022/08/12 04:55:56;;;;;;;16.17;7.03;;;25.20;41.70;;;;;;7397239;19;20011;-90
2022/08/12 04:58:25;;;;;;;13.18;7.00;;;25.20;41.10;;;;;;7416005;19;20013;-90
2022/08/12 05:00:54;;;;;;;11.85;6.30;;;25.20;41.10;;;;;;7404756;19;20026;-90
2022/08/12 05:03:23;;;;;;;15.70;6.57;;;25.20;41.00;;;;;;7399329;19;20030;-90
2022/08/12 05:05:55;;;;;;;21.75;6.90;;;25.20;41.30;;;;;;7395142;19;20006;-90
2022/08/12 05:08:25;;;;;;;11.32;6.63;;;25.20;41.20;;;;;;7395716;19;20021;-90
2022/08/12 05:10:55;;;;;;;17.42;6.90;;;25.10;40.90;;;;;;7397388;19;20019;-91
2022/08/12 05:13:27;;;;;;;12.88;6.80;;;25.20;41.10;;;;;;7416275;19;20098;-91
2022/08/12 05:15:56;;;;;;;11.18;6.47;;;25.20;41.70;;;;;;7396477;19;20010;-91
2022/08/12 05:18:25;;;;;;;10.70;5.85;;;25.20;41.10;;;;;;7398773;19;20052;-91
2022/08/12 05:20:57;;;;;;;18.23;6.70;;;25.20;41.30;;;;;;7397948;19;20022;-90
2022/08/12 05:23:26;;;;;;;16.98;6.63;;;25.20;41.60;;;;;;7395969;19;20003;-90
2022/08/12 05:25:55;;;;;;;16.90;6.72;;;25.30;42.00;;;;;;7395341;19;20014;-92
2022/08/12 05:28:25;;;;;;;15.75;6.65;;;25.30;42.00;;;;;;7418693;19;20018;-92
2022/08/12 05:30:54;;;;;;;14.05;6.35;;;25.40;42.20;;;;;;7397340;19;20027;-91
2022/08/12 05:33:32;;;;;;;17.33;6.45;;;25.40;42.20;;;;;;7397295;19;20010;-91
2022/08/12 05:36:05;;;;;;;19.08;6.65;;;25.40;42.00;;;;;;7398505;19;20072;-91
2022/08/12 05:41:20;;;;;;;17.45;6.63;;;25.50;41.80;;;;;;7396031;19;20033;-92
2022/08/12 05:43:50;;;;;;;21.85;6.53;;;25.50;41.80;;;;;;7420452;19;20003;-92
2022/08/12 05:46:20;;;;;;;17.80;6.70;;;25.60;42.10;;;;;;7400707;19;20002;-92
2022/08/12 05:48:53;;;;;;;14.02;6.43;;;25.60;42.00;;;;;;7402432;19;20015;-91
2022/08/12 05:51:25;;;;;;;11.10;5.82;;;25.70;42.10;;;;;;7400701;19;20010;-92
2022/08/12 05:53:55;;;;;;;15.80;6.00;;;25.70;42.10;;;;;;7403747;19;20030;-92
2022/08/12 05:59:02;;;;;;;13.95;6.45;;;25.80;42.20;;;;;;7390275;19;20006;-90
2022/08/12 06:01:32;;;;;;;16.83;6.30;;;25.90;42.20;;;;;;7422747;19;20111;-92
2022/08/12 06:04:00;;;;;;;18.42;5.88;;;25.90;41.80;;;;;;7403566;19;20003;-93
2022/08/12 06:06:33;;;;;;;21.10;6.18;;;26.00;41.50;;;;;;7382161;19;20014;-91
2022/08/12 06:09:02;;;;;;;28.25;6.35;;;26.00;41.40;;;;;;7378773;19;20007;-92
2022/08/12 06:11:31;;;;;;;10.75;5.53;;;26.10;41.40;;;;;;7402135;19;20006;-92
2022/08/12 06:14:00;;;;;;;12.90;5.75;;;26.00;41.20;;;;;;7403502;19;20002;-91
2022/08/12 06:16:34;;;;;;;21.88;6.25;;;26.10;41.90;;;;;;7405072;19;20033;-91
2022/08/12 06:19:02;;;;;;;20.80;5.63;;;26.10;41.20;;;;;;7385252;19;20014;-92
2022/08/12 06:21:36;;;;;;;13.20;5.80;;;26.10;41.40;;;;;;7393442;19;20007;-92
2022/08/12 06:24:07;;;;;;;14.90;5.97;;;26.10;41.30;;;;;;7379379;19;20010;-93
2022/08/12 06:26:36;;;;;;;9.50;5.05;;;26.10;41.20;;;;;;7368042;19;20014;-92
2022/08/12 06:29:05;;;;;;;13.75;5.72;;;26.20;41.10;;;;;;7407288;19;19999;-90
2022/08/12 06:31:33;;;;;;;14.05;5.60;;;26.30;41.10;;;;;;7429828;19;20018;-92
2022/08/12 06:34:02;;;;;;;10.02;5.18;;;26.30;40.70;;;;;;7409729;19;20011;-92
2022/08/12 06:36:34;;;;;;;18.58;5.60;;;26.40;40.70;;;;;;7397132;19;20014;-92
2022/08/12 06:39:03;;;;;;;14.65;5.00;;;26.40;40.60;;;;;;7405824;19;20007;-91
2022/08/12 06:44:19;;;;;;;16.67;5.20;;;26.60;40.50;;;;;;7387822;19;20036;-92
2022/08/12 06:46:49;;;;;;;13.02;4.90;;;26.70;40.40;;;;;;7419008;19;20006;-92
2022/08/12 06:49:21;;;;;;;18.33;5.30;;;26.70;40.20;;;;;;7378131;19;20010;-86
2022/08/12 06:51:54;;;;;;;11.15;4.82;;;26.80;40.00;;;;;;7385347;19;20013;-90
2022/08/12 06:54:26;;;;;;;10.15;4.68;;;26.90;40.00;;;;;;7389088;19;20421;-90
2022/08/12 06:56:55;;;;;;;12.32;5.00;;;26.90;39.90;;;;;;7387052;19;20006;-89
2022/08/12 06:59:24;;;;;;;10.50;4.50;;;27.00;39.90;;;;;;7374294;19;20031;-86
2022/08/12 07:01:53;;;;;;;13.50;4.88;;;27.10;39.90;;;;;;7397632;19;20022;-85
2022/08/12 07:04:23;;;;;;;15.70;4.87;;;27.20;39.90;;;;;;7390704;19;20021;-89
2022/08/12 07:06:55;;;;;;;10.32;4.50;;;27.20;39.80;;;;;;7370587;19;20285;-87
2022/08/12 07:09:26;;;;;;;13.68;4.25;;;27.30;39.20;;;;;;7374147;19;20039;-84
2022/08/12 07:19:33;;;;;;;7.05;3.78;;;27.50;37.40;;;;;;7375358;19;20026;-88
2022/08/12 07:50:19;;;;;;;6.18;3.75;;;27.90;34.70;;;;;;7290623;19;20014;-86
2022/08/12 07:52:55;;;;;;;6.40;3.30;;;28.00;34.70;;;;;;7273763;19;2004171;-85
2022/08/12 07:55:38;;;;;;;10.05;3.50;;;28.00;34.50;;;;;;7387380;19;20033;-85
2022/08/12 07:58:10;;;;;;;11.15;3.22;;;28.10;34.50;;;;;;7368501;19;20011;-84
2022/08/12 08:00:41;;;;;;;6.55;3.13;;;28.10;34.60;;;;;;7368654;19;20011;-83
2022/08/12 08:03:30;;;;;;;12.18;3.38;;;28.10;34.30;;;;;;7376223;19;20035;-85
2022/08/12 08:15:01;;;;;;;10.82;3.33;;;28.30;34.10;;;;;;7377402;19;20022;-80
2022/08/12 08:17:30;;;;;;;9.48;3.50;;;28.30;34.20;;;;;;7386056;19;20014;-88
2022/08/12 08:20:00;;;;;;;6.43;3.05;;;28.30;34.20;;;;;;7379612;19;20015;-90
2022/08/12 08:22:31;;;;;;;8.48;3.03;;;28.30;34.20;;;;;;7398789;19;20074;-88
2022/08/12 08:25:01;;;;;;;7.53;3.67;;;28.30;34.30;;;;;;7376864;19;20054;-88
2022/08/12 08:27:44;;;;;;;7.70;3.58;;;28.30;34.30;;;;;;7389994;19;20066;-91
2022/08/12 08:30:14;;;;;;;11.50;3.40;;;28.40;34.30;;;;;;7399179;19;20047;-89
2022/08/12 08:38:53;;;;;;;7.63;3.03;;;28.60;34.50;;;;;;7407706;19;20335;-89
2022/08/12 08:44:09;;;;;;;13.50;3.45;;;28.50;34.60;;;;;;7381415;19;20355;-88
2022/08/12 08:46:53;;;;;;;10.13;3.40;;;28.60;34.30;;;;;;7411538;19;20010;-89
2022/08/12 08:49:23;;;;;;;7.53;2.95;;;28.50;34.40;;;;;;7382648;19;20038;-81
2022/08/12 08:51:52;;;;;;;5.80;3.05;;;28.60;34.40;;;;;;7378568;19;20006;-85
2022/08/12 08:54:23;;;;;;;12.27;3.30;;;28.60;34.30;;;;;;7370181;19;20710;-82
2022/08/12 08:56:52;;;;;;;5.72;3.40;;;28.60;34.50;;;;;;7371676;19;20014;-84
2022/08/12 08:59:22;;;;;;;8.70;3.13;;;28.70;34.30;;;;;;7367887;19;20179;-82
2022/08/12 09:01:50;;;;;;;12.85;3.65;;;28.70;34.40;;;;;;7390936;19;20022;-84
2022/08/12 09:04:19;;;;;;;10.68;3.45;;;28.70;34.30;;;;;;7370390;19;20020;-84
2022/08/12 09:06:48;;;;;;;8.45;3.10;;;28.80;34.80;;;;;;7367603;19;20027;-84
2022/08/12 09:09:17;;;;;;;9.63;3.30;;;28.80;34.50;;;;;;7370101;19;20078;-85
2022/08/12 09:14:30;;;;;;;6.57;3.00;;;28.90;34.50;;;;;;7367783;19;20018;-84
2022/08/12 09:16:58;;;;;;;8.02;3.42;;;28.90;34.50;;;;;;7367229;19;20571;-85
2022/08/12 09:19:28;;;;;;;7.88;3.33;;;28.90;34.50;;;;;;7389016;19;20024;-85
2022/08/12 09:21:57;;;;;;;7.75;3.38;;;29.00;33.90;;;;;;7366980;19;20021;-84
2022/08/12 09:24:25;;;;;;;14.45;3.03;;;29.00;33.70;;;;;;7367588;19;20098;-84
2022/08/12 09:27:00;;;;;;;7.80;3.15;;;29.00;33.40;;;;;;7369839;19;20015;-84
2022/08/12 09:29:29;;;;;;;5.38;3.35;;;29.10;33.10;;;;;;7367834;19;20255;-85
2022/08/12 09:31:59;;;;;;;7.55;3.03;;;29.10;33.10;;;;;;7366735;19;20042;-85
2022/08/12 09:34:28;;;;;;;7.45;2.70;;;29.10;33.30;;;;;;7392224;19;20010;-85
2022/08/12 09:36:58;;;;;;;7.25;2.50;;;29.20;32.90;;;;;;7372495;19;20037;-85
2022/08/12 09:39:26;;;;;;;9.13;2.92;;;29.20;32.80;;;;;;7369003;19;20014;-84
2022/08/12 09:47:21;;;;;;;6.40;2.80;;;29.30;32.80;;;;;;7368317;19;20018;-85
2022/08/12 09:49:52;;;;;;;7.90;3.17;;;29.30;32.70;;;;;;7387438;19;20031;-85
2022/08/12 09:52:21;;;;;;;;;;;29.40;32.90;;;;;;7366895;19;20014;-85
2022/08/12 09:54:53;;;;;;;8.15;2.90;;;29.50;32.70;;;;;;7366285;19;19919;-85
2022/08/12 09:57:25;;;;;;;9.35;2.80;;;29.50;32.60;;;;;;7366874;19;20702;-85
2022/08/12 09:59:55;;;;;;;14.13;2.95;;;29.50;32.70;;;;;;7365685;19;20019;-85
2022/08/12 10:02:25;;;;;;;7.32;2.80;;;29.50;32.40;;;;;;7364574;19;20015;-85
2022/08/12 10:04:56;;;;;;;8.17;2.80;;;29.50;32.70;;;;;;7371911;19;20021;-84
2022/08/12 10:07:25;;;;;;;7.60;2.95;;;29.50;32.40;;;;;;7386270;19;20022;-84
2022/08/12 10:09:54;;;;;;;5.95;2.47;;;29.60;31.90;;;;;;7364630;19;20451;-85
2022/08/12 10:15:07;;;;;;;6.72;2.70;;;29.70;31.60;;;;;;7367568;19;20089;-85
2022/08/12 10:17:37;;;;;;;8.38;2.58;;;29.70;31.30;;;;;;7369335;19;20097;-84
2022/08/12 10:20:07;;;;;;;3.85;2.47;;;29.80;31.10;;;;;;7366784;19;20070;-84
2022/08/12 10:22:40;;;;;;;16.47;2.70;;;29.80;31.30;;;;;;7385213;19;20140;-89
2022/08/12 10:30:51;;;;;;;7.30;2.45;;;29.80;30.40;;;;;;7369383;19;20474;-86
2022/08/12 10:33:20;;;;;;;8.15;2.60;;;29.90;30.50;;;;;;7368917;19;20019;-86
2022/08/12 10:35:49;;;;;;;8.82;2.33;;;29.90;30.30;;;;;;7365141;19;20014;-88
2022/08/12 10:38:18;;;;;;;5.20;2.53;;;30.00;30.00;;;;;;7365126;19;20018;-85
2022/08/12 10:43:43;;;;;;;2.80;2.35;;;30.00;30.10;;;;;;7365653;19;20014;-83
2022/08/12 10:46:16;;;;;;;7.43;2.50;;;30.00;30.60;;;;;;7361875;19;20243;-84
2022/08/12 10:48:50;;;;;;;3.80;2.03;;;30.10;30.60;;;;;;7365021;19;20010;-84
2022/08/12 10:51:20;;;;;;;3.40;2.45;;;30.20;30.20;;;;;;7364206;19;20019;-84
2022/08/12 10:53:50;;;;;;;7.53;2.63;;;30.30;30.20;;;;;;7364397;19;20094;-84
2022/08/12 10:56:21;;;;;;;3.58;2.38;;;30.40;30.10;;;;;;7366829;19;20027;-86
2022/08/12 10:58:54;;;;;;;;;;;30.40;30.00;;;;;;7391627;19;20025;-83
2022/08/12 11:01:23;;;;;;;5.68;2.70;;;30.50;30.10;;;;;;7368794;19;20304;-85
2022/08/12 11:03:52;;;;;;;5.43;3.28;;;30.60;30.20;;;;;;7373152;19;20042;-86
2022/08/12 11:06:24;;;;;;;4.78;2.85;;;30.60;30.20;;;;;;7372810;19;20028;-84
2022/08/12 11:09:04;;;;;;;9.32;2.42;;;30.70;30.10;;;;;;7375944;19;20026;-87
2022/08/12 11:11:38;;;;;;;5.30;2.45;;;30.70;29.90;;;;;;7374329;19;20465;-85
2022/08/12 11:14:10;;;;;;;8.35;2.83;;;30.70;29.70;;;;;;7370093;19;20018;-86
2022/08/12 11:16:44;;;;;;;3.53;2.50;;;30.80;29.30;;;;;;7393958;19;20098;-80
2022/08/12 11:19:14;;;;;;;27.23;2.67;;;30.80;29.00;;;;;;7374076;19;20215;-87
2022/08/12 11:21:48;;;;;;;4.27;2.50;;;30.90;29.40;;;;;;7381274;19;20074;-89
2022/08/12 11:24:17;;;;;;;7.18;2.45;;;30.90;29.70;;;;;;7382809;19;20034;-86
2022/08/12 11:26:59;;;;;;;7.85;2.88;;;31.00;29.50;;;;;;7367128;19;20563;-82
2022/08/12 11:29:37;;;;;;;6.40;3.20;;;31.10;29.40;;;;;;7367739;19;20356;-81
2022/08/12 11:32:24;;;;;;;11.93;3.30;;;31.10;29.50;;;;;;7362725;19;20014;-82
2022/08/12 11:35:05;;;;;;;9.18;2.63;;;31.10;29.30;;;;;;7383545;19;20011;-82
2022/08/12 11:38:04;;;;;;;4.40;2.20;;;31.20;29.00;;;;;;7390662;19;20024;-81
2022/08/12 11:40:47;;;;;;;4.90;2.65;;;31.30;28.80;;;;;;7368287;19;20477;-83
2022/08/12 11:47:01;;;;;;;5.05;2.80;;;31.40;28.70;;;;;;7389740;19;20079;-85
2022/08/12 11:50:10;;;;;;;7.65;2.65;;;31.40;28.20;;;;;;7370974;19;20022;-86
2022/08/12 11:52:40;;;;;;;11.07;2.63;;;31.50;28.40;;;;;;7365526;19;20015;-83
2022/08/12 11:56:00;;;;;;;8.63;2.47;;;31.60;28.40;;;;;;7368642;19;20010;-84
2022/08/12 11:58:29;;;;;;;4.38;2.47;;;31.60;28.30;;;;;;7370630;19;20014;-83
2022/08/12 12:01:11;;;;;;;4.07;2.72;;;31.70;28.50;;;;;;7336044;19;20014;-84
2022/08/12 12:04:11;;;;;;;18.50;2.50;;;31.70;28.00;;;;;;7370667;19;20042;-83
2022/08/12 12:06:41;;;;;;;7.97;2.55;;;31.80;27.80;;;;;;7375562;19;20019;-82
2022/08/12 12:09:10;;;;;;;3.13;2.40;;;31.80;27.70;;;;;;7369474;19;20037;-82
2022/08/12 12:11:39;;;;;;;4.75;2.10;;;31.90;27.70;;;;;;7370235;19;20014;-83
2022/08/12 12:14:08;;;;;;;7.70;2.40;;;31.90;28.10;;;;;;7369056;19;20015;-84
2022/08/12 12:16:37;;;;;;;6.55;2.30;;;31.90;27.40;;;;;;7391021;19;20419;-81
2022/08/12 12:19:08;;;;;;;2.70;2.15;;;32.00;27.00;;;;;;7368936;19;20457;-80
2022/08/12 12:21:37;;;;;;;4.18;2.40;;;32.00;27.00;;;;;;7367655;19;20011;-81
2022/08/12 12:24:07;;;;;;;5.72;2.13;;;32.10;27.30;;;;;;7369090;19;20037;-83
2022/08/12 12:27:07;;;;;;;3.60;1.90;;;32.10;27.10;;;;;;7367775;19;20014;-81
2022/08/12 12:29:36;;;;;;;9.65;2.30;;;32.20;27.10;;;;;;7367623;19;20035;-82
2022/08/12 12:32:06;;;;;;;5.07;2.40;;;32.30;26.80;;;;;;7363948;19;20074;-81
2022/08/12 12:34:45;;;;;;;15.35;2.53;;;32.30;26.90;;;;;;7389146;19;20019;-80
2022/08/12 12:37:14;;;;;;;6.88;2.05;;;32.30;26.70;;;;;;7366483;19;20319;-81
2022/08/12 12:39:43;;;;;;;5.50;2.45;;;32.40;26.50;;;;;;7366429;19;20011;-81
2022/08/12 12:42:12;;;;;;;5.10;1.92;;;32.40;26.50;;;;;;7369396;19;20018;-81
2022/08/12 12:44:41;;;;;;;5.50;2.25;;;32.50;26.40;;;;;;7370742;19;20014;-81
2022/08/12 12:47:10;;;;;;;2.30;2.00;;;32.50;26.50;;;;;;7369803;19;20047;-82
2022/08/12 12:49:41;;;;;;;8.38;2.13;;;32.60;26.40;;;;;;7388436;19;20023;-81
2022/08/12 12:52:10;;;;;;;9.02;2.60;;;32.60;26.60;;;;;;7367569;19;20011;-81
2022/08/12 12:54:51;;;;;;;6.70;2.00;;;32.70;26.70;;;;;;7368775;19;20055;-81
2022/08/12 12:57:23;;;;;;;4.43;2.08;;;32.80;26.50;;;;;;7369858;19;20101;-81
2022/08/12 13:02:39;;;;;;;;;;;32.80;26.50;;;;;;7370346;19;20036;-82
2022/08/12 13:05:11;;;;;;;7.60;2.40;;;32.90;26.60;;;;;;7374980;19;19925;-81
2022/08/12 13:07:41;;;;;;;4.95;2.15;;;32.90;26.80;;;;;;7393371;19;20106;-82
2022/08/12 13:10:11;;;;;;;11.00;2.47;;;33.00;26.40;;;;;;7369363;19;20015;-82
2022/08/12 13:12:41;;;;;;;6.68;2.65;;;33.00;26.60;;;;;;7367535;19;20029;-82
2022/08/12 13:15:14;;;;;;;7.65;2.30;;;33.10;26.50;;;;;;7366769;19;20021;-82
2022/08/12 13:17:46;;;;;;;5.88;2.30;;;33.20;26.50;;;;;;7366857;19;20434;-82
2022/08/12 13:20:19;;;;;;;5.13;2.17;;;33.20;26.40;;;;;;7367080;19;20045;-82
2022/08/12 13:22:49;;;;;;;5.38;1.90;;;33.20;26.20;;;;;;7387191;19;20085;-81
2022/08/12 13:25:19;;;;;;;3.33;2.40;;;33.30;26.10;;;;;;7365039;19;20039;-81
2022/08/12 13:27:49;;;;;;;6.88;1.98;;;33.40;26.20;;;;;;7366025;19;20010;-82
2022/08/12 13:30:19;;;;;;;8.77;2.17;;;33.40;26.20;;;;;;7365277;19;20017;-81
2022/08/12 13:32:54;;;;;;;3.33;2.17;;;33.40;25.80;;;;;;7364706;19;20035;-81
2022/08/12 13:35:26;;;;;;;7.30;2.28;;;33.50;25.90;;;;;;7365278;19;20256;-82
2022/08/12 13:37:56;;;;;;;4.90;2.15;;;33.50;26.00;;;;;;7365409;19;20011;-81
2022/08/12 13:40:29;;;;;;;3.75;2.30;;;33.50;26.20;;;;;;7386828;19;20571;-82
2022/08/12 13:43:00;;;;;;;4.88;2.13;;;33.60;26.10;;;;;;7366726;19;20032;-81
2022/08/12 13:45:31;;;;;;;4.32;2.28;;;33.60;26.10;;;;;;7365569;19;20015;-81
2022/08/12 13:48:01;;;;;;;3.75;2.20;;;33.60;26.20;;;;;;7365436;19;20484;-81
2022/08/12 13:50:36;;;;;;;5.45;2.22;;;33.80;26.20;;;;;;7364111;19;20011;-81
2022/08/12 13:53:08;;;;;;;5.13;2.20;;;33.80;26.00;;;;;;7362994;19;20059;-81
2022/08/12 13:55:38;;;;;;;7.57;2.30;;;33.90;26.20;;;;;;7386851;19;20453;-81
2022/08/12 13:58:10;;;;;;;12.77;2.28;;;33.90;26.00;;;;;;7364260;19;20033;-81
2022/08/12 14:00:40;;;;;;;3.33;2.30;;;33.90;25.80;;;;;;7365986;19;20045;-82
2022/08/12 14:03:08;;;;;;;6.20;2.22;;;34.00;25.80;;;;;;7365052;19;20023;-82
2022/08/12 14:05:40;;;;;;;5.85;2.28;;;34.00;25.90;;;;;;7364822;19;20348;-82
2022/08/12 14:08:10;;;;;;;9.15;2.17;;;34.00;25.60;;;;;;7367783;19;20064;-82
2022/08/12 14:10:42;;;;;;;8.35;2.42;;;34.10;25.80;;;;;;7387595;19;20011;-82
2022/08/12 14:13:13;;;;;;;6.07;1.90;;;34.10;26.00;;;;;;7364329;19;20018;-82
2022/08/12 14:15:46;;;;;;;3.58;2.17;;;34.20;26.10;;;;;;7366684;19;20035;-82
2022/08/12 14:18:19;;;;;;;10.35;2.45;;;34.20;26.30;;;;;;7366957;19;20018;-81
2022/08/12 14:20:56;;;;;;;5.47;2.22;;;34.30;26.00;;;;;;7365555;19;20066;-82
2022/08/12 14:23:26;;;;;;;4.28;2.25;;;34.30;25.80;;;;;;7363848;19;20015;-82
2022/08/12 14:25:58;;;;;;;4.97;1.97;;;34.40;25.50;;;;;;7372917;19;20021;-81
2022/08/12 14:28:29;;;;;;;4.35;1.92;;;34.50;25.30;;;;;;7385375;19;20014;-82
2022/08/12 14:31:00;;;;;;;2.95;2.03;;;34.40;25.20;;;;;;7365420;19;20744;-81
2022/08/12 14:33:32;;;;;;;6.18;2.33;;;34.50;25.50;;;;;;7364172;19;20021;-81
2022/08/12 14:36:05;;;;;;;4.80;2.00;;;34.50;25.70;;;;;;7371548;19;20347;-81
2022/08/12 14:38:38;;;;;;;5.00;2.30;;;34.60;25.80;;;;;;7371956;19;20021;-82
2022/08/12 14:41:08;;;;;;;9.40;2.40;;;34.60;25.60;;;;;;7370551;19;20074;-82
2022/08/12 14:43:42;;;;;;;7.50;2.20;;;34.60;25.60;;;;;;7391761;19;20074;-81
2022/08/12 14:46:14;;;;;;;7.20;2.47;;;34.70;25.50;;;;;;7371055;19;20471;-81
2022/08/12 14:48:45;;;;;;;8.90;1.95;;;34.80;25.70;;;;;;7371143;19;20017;-81
2022/08/12 14:51:16;;;;;;;;;;;34.80;25.40;;;;;;7371689;19;20125;-81
2022/08/12 14:53:49;;;;;;;6.47;2.00;;;34.80;25.00;;;;;;7371834;19;20344;-81
2022/08/12 14:56:19;;;;;;;5.05;2.20;;;34.80;25.00;;;;;;7371718;19;20010;-82
2022/08/12 15:01:41;;;;;;;;;;;34.80;25.00;;;;;;7373893;19;20870;-82
2022/08/12 15:04:11;;;;;;;3.00;1.95;;;34.80;25.30;;;;;;7370941;19;20273;-82
2022/08/12 15:06:45;;;;;;;6.53;2.00;;;34.80;25.50;;;;;;7370102;19;20077;-82
2022/08/12 15:09:15;;;;;;;7.00;2.03;;;34.80;25.20;;;;;;7370356;19;20348;-81
2022/08/12 15:11:45;;;;;;;3.67;2.03;;;34.90;25.10;;;;;;7369336;19;20007;-82
2022/08/12 15:14:14;;;;;;;8.45;2.00;;;34.90;24.90;;;;;;7369323;19;21807;-82
2022/08/12 15:16:43;;;;;;;2.95;1.90;;;34.90;24.70;;;;;;7393140;19;20102;-82
2022/08/12 15:19:12;;;;;;;6.18;2.33;;;35.00;24.60;;;;;;7369641;19;20097;-81
2022/08/12 15:21:43;;;;;;;5.63;2.05;;;35.00;24.50;;;;;;7370818;19;20271;-82
2022/08/12 15:24:12;;;;;;;2.40;1.90;;;35.00;24.40;;;;;;7369419;19;20027;-82
2022/08/12 15:26:41;;;;;;;3.70;2.10;;;35.10;24.50;;;;;;7371179;19;20078;-82
2022/08/12 15:29:09;;;;;;;3.42;2.22;;;35.10;24.80;;;;;;7368829;19;20110;-82
2022/08/12 15:31:38;;;;;;;4.20;2.08;;;35.00;24.80;;;;;;7391281;19;20445;-83
2022/08/12 15:34:07;;;;;;;4.80;2.10;;;35.10;24.90;;;;;;7366822;19;20014;-83
2022/08/12 15:36:37;;;;;;;8.38;2.33;;;35.10;25.20;;;;;;7369947;19;20338;-83
2022/08/12 15:39:09;;;;;;;7.25;2.80;;;35.10;25.20;;;;;;7369297;19;20074;-83
2022/08/12 15:41:37;;;;;;;4.30;2.83;;;35.20;25.20;;;;;;7367284;19;20441;-83
2022/08/12 15:44:09;;;;;;;9.40;2.20;;;35.30;25.30;;;;;;7369049;19;20018;-83
2022/08/12 15:46:38;;;;;;;4.25;1.90;;;35.40;24.80;;;;;;7389814;19;20038;-82
2022/08/12 15:49:07;;;;;;;3.28;2.08;;;35.40;24.40;;;;;;7369347;19;20014;-83
2022/08/12 15:51:36;;;;;;;6.13;2.17;;;35.50;24.30;;;;;;7369733;19;20014;-83
2022/08/12 15:54:12;;;;;;;7.10;2.17;;;35.60;24.10;;;;;;7370834;19;20029;-83
2022/08/12 15:56:43;;;;;;;4.55;2.10;;;35.60;24.70;;;;;;7368997;19;20017;-83
2022/08/12 15:59:14;;;;;;;2.28;1.77;;;35.70;23.80;;;;;;7369236;19;20018;-83
2022/08/12 16:01:42;;;;;;;6.47;2.10;;;35.70;23.80;;;;;;7390299;19;20025;-83